Newman Grove, Nebraska
Current Conditions -  °F | °C
As of 6:15 AM on Monday 26 Jan 2015 (Local Time) from KBVN Reporting Station
Clear Clear  
Wind Chill: -1°   Ceiling: Unl
Heat Index: -1°   Visibility: 10mi
Dew Point: -3°   Wind: 3mph
Humidity: 85%   Direction: 330°NNW
Pressure: 29.88"   Gusts: NA
Location:  41.75°N, 97.78°W
Report Text: KBVN 261215Z AUTO 33003KT 10SM CLR M01/M03 A2988 RMK AO2 T10061029
Loading
Personal Weather Stations






























Interactive Weather Map New forecast layout! Learn more

10-Day Weather Forecast

Advertisements
Track Severe Weather on mobile